Time;durP1;ratioP1;P1;durP2;ratioP2;P2;SDS_P1;SDS_P2;PMS_P1;PMS_P2;Temp;Humidity;BMP_temperature;BMP_pressure;BME280_temperature;BME280_humidity;BME280_pressure;Samples;Min_cycle;Max_cycle;Signal;HPM_P1;HPM_P2
2022/06/15 00:00:37;;;;;;;4.30;1.92;;;;;;;13.21;56.94;99653.34;1678458;85;21082;-75
2022/06/15 00:03:04;;;;;;;3.87;1.75;;;;;;;13.18;57.09;99661.43;1679080;85;21063;-75
2022/06/15 00:05:30;;;;;;;1.85;1.37;;;;;;;13.14;57.37;99651.91;1678364;85;21138;-75
2022/06/15 00:07:57;;;;;;;2.17;1.50;;;;;;;13.09;57.59;99651.24;1678760;85;21865;-75
2022/06/15 00:10:24;;;;;;;5.08;1.92;;;;;;;13.05;57.88;99653.16;1678109;85;21027;-75
2022/06/15 00:12:52;;;;;;;5.20;2.15;;;;;;;12.98;58.15;99655.20;1678443;85;21518;-74
2022/06/15 00:15:19;;;;;;;2.85;1.70;;;;;;;12.92;58.33;99654.60;1678527;85;21090;-75
2022/06/15 00:17:45;;;;;;;3.77;2.00;;;;;;;12.85;58.51;99651.36;1678561;85;21600;-75
2022/06/15 00:20:12;;;;;;;3.42;1.70;;;;;;;12.80;58.65;99648.91;1678538;85;22243;-75
2022/06/15 00:22:40;;;;;;;2.50;1.52;;;;;;;12.78;58.73;99649.91;1678080;84;21134;-75
2022/06/15 00:25:09;;;;;;;9.88;1.67;;;;;;;12.75;58.82;99649.55;1674619;85;21036;-74
2022/06/15 00:27:35;;;;;;;5.33;1.70;;;;;;;12.73;58.83;99649.23;1673662;85;21087;-74
2022/06/15 00:30:06;;;;;;;4.08;1.80;;;;;;;12.72;59.08;99648.83;1673156;84;21673;-75
2022/06/15 00:32:33;;;;;;;2.72;1.67;;;;;;;12.69;59.24;99652.91;1673216;85;21153;-75
2022/06/15 00:35:00;;;;;;;2.20;1.60;;;;;;;12.64;59.34;99653.97;1673512;85;21083;-75
2022/06/15 00:37:26;;;;;;;6.75;1.85;;;;;;;12.63;59.46;99647.43;1669399;85;21035;-75
2022/06/15 00:39:53;;;;;;;2.67;1.60;;;;;;;12.61;59.60;99646.17;1727680;81;21001;-75
2022/06/15 00:42:21;;;;;;;7.80;1.90;;;;;;;12.59;59.73;99653.30;1727714;83;20991;-75
2022/06/15 00:44:49;;;;;;;3.35;1.75;;;;;;;12.58;59.97;99652.89;1727496;81;21857;-75
2022/06/15 00:47:25;;;;;;;3.35;1.60;;;;;;;12.56;59.91;99650.78;1727695;83;21421;-75
2022/06/15 00:50:05;;;;;;;4.67;1.70;;;;;;;12.55;59.98;99650.84;1727666;83;21606;-74
2022/06/15 00:52:52;;;;;;;3.15;1.70;;;;;;;12.54;60.10;99645.16;1727540;83;21070;-75
2022/06/15 00:55:25;;;;;;;1.92;1.50;;;;;;;12.52;60.31;99647.00;1727482;83;21148;-75
2022/06/15 00:57:53;;;;;;;5.62;1.62;;;;;;;12.49;60.41;99648.00;1727224;83;21844;-75
2022/06/15 01:00:20;;;;;;;4.95;1.35;;;;;;;12.46;60.71;99644.16;1727677;83;21514;-75
2022/06/15 01:02:49;;;;;;;4.70;1.70;;;;;;;12.42;60.97;99646.51;1727643;83;21054;-75
2022/06/15 01:05:28;;;;;;;3.37;1.92;;;;;;;12.37;61.07;99641.88;1727848;83;21029;-75
2022/06/15 01:08:12;;;;;;;2.72;1.60;;;;;;;12.32;61.30;99643.84;1727647;83;21039;-75
2022/06/15 01:11:11;;;;;;;3.87;1.90;;;;;;;12.29;61.49;99645.27;1727704;83;21845;-75
2022/06/15 01:14:07;;;;;;;4.45;1.67;;;;;;;12.25;61.86;99652.02;1727394;83;21548;-75
2022/06/15 01:17:19;;;;;;;4.70;2.00;;;;;;;12.21;61.86;99650.87;1726327;81;21057;-75
2022/06/15 01:20:10;;;;;;;4.20;1.50;;;;;;;12.18;61.97;99653.16;1727436;83;21655;-75
2022/06/15 01:23:13;;;;;;;7.30;1.92;;;;;;;12.17;62.18;99650.14;1727844;83;21033;-75
2022/06/15 01:26:05;;;;;;;4.00;1.98;;;;;;;12.16;62.27;99657.64;1718108;82;21549;-75
2022/06/15 01:28:57;;;;;;;2.25;1.80;;;;;;;12.14;62.34;99659.48;1683726;83;21023;-75
2022/06/15 01:31:56;;;;;;;2.95;1.70;;;;;;;12.11;62.48;99660.91;1633909;86;21046;-75
2022/06/15 01:34:45;;;;;;;2.87;1.90;;;;;;;12.09;62.79;99661.44;1642903;87;21035;-75
2022/06/15 01:37:39;;;;;;;3.70;2.02;;;;;;;12.05;62.94;99666.41;1642006;86;21071;-75
2022/06/15 01:40:17;;;;;;;2.75;1.75;;;;;;;12.01;62.94;99670.10;1639485;86;21502;-75
2022/06/15 01:42:55;;;;;;;7.12;1.80;;;;;;;11.97;63.33;99666.73;1638866;86;21062;-74
2022/06/15 01:45:26;;;;;;;2.02;1.60;;;;;;;11.95;63.54;99671.64;1642961;86;21645;-75
2022/06/15 01:47:53;;;;;;;4.08;2.00;;;;;;;11.88;63.67;99663.07;1643024;87;21090;-75
2022/06/15 01:50:25;;;;;;;5.90;1.77;;;;;;;11.85;63.87;99668.02;1642747;87;21015;-75
2022/06/15 01:53:13;;;;;;;2.35;1.65;;;;;;;11.81;63.91;99665.08;1643053;87;21143;-74
2022/06/15 01:55:55;;;;;;;4.10;1.98;;;;;;;11.81;63.89;99670.34;1642800;86;21507;-74
2022/06/15 01:58:25;;;;;;;6.05;1.65;;;;;;;11.83;63.97;99672.93;1643096;86;21063;-75
2022/06/15 02:01:05;;;;;;;4.90;1.70;;;;;;;11.83;64.06;99681.69;1642719;86;21079;-75
2022/06/15 02:03:46;;;;;;;3.30;1.65;;;;;;;11.83;64.01;99684.33;1642934;86;21050;-74
2022/06/15 02:06:39;;;;;;;6.50;1.95;;;;;;;11.86;64.08;99686.85;1642722;86;21830;-75
2022/06/15 02:09:18;;;;;;;2.30;1.60;;;;;;;11.87;64.24;99684.62;1643251;87;21066;-74
2022/06/15 02:11:47;;;;;;;2.33;1.50;;;;;;;11.89;64.33;99689.37;1642523;87;21593;-75
2022/06/15 02:14:33;;;;;;;3.95;1.67;;;;;;;11.92;64.23;99688.89;1642873;87;21028;-75
2022/06/15 02:17:03;;;;;;;3.57;2.00;;;;;;;11.94;64.29;99689.72;1642807;87;21692;-75
2022/06/15 02:19:45;;;;;;;2.92;1.77;;;;;;;11.97;64.24;99685.62;1642972;87;21136;-74
2022/06/15 02:22:17;;;;;;;3.17;2.10;;;;;;;11.98;64.16;99691.31;1642524;86;21150;-75
2022/06/15 02:24:44;;;;;;;5.67;1.60;;;;;;;11.93;64.33;99694.58;1662268;84;21042;-74
2022/06/15 02:27:11;;;;;;;3.00;2.00;;;;;;;11.93;64.50;99701.17;1696780;84;21136;-75
2022/06/15 02:29:38;;;;;;;3.33;1.92;;;;;;;11.90;64.53;99704.30;1675403;84;21105;-75
2022/06/15 02:32:11;;;;;;;5.87;1.80;;;;;;;11.88;64.82;99703.50;1696858;84;21058;-74
2022/06/15 02:34:38;;;;;;;3.42;2.00;;;;;;;11.83;64.96;99708.05;1696827;84;21031;-75
2022/06/15 02:37:07;;;;;;;7.65;1.95;;;;;;;11.80;65.21;99698.96;1695407;84;21134;-75
2022/06/15 02:39:35;;;;;;;3.37;2.25;;;;;;;11.78;65.45;99700.77;1677703;85;21545;-75
2022/06/15 02:42:24;;;;;;;4.15;2.22;;;;;;;11.77;65.50;99702.14;1677717;85;21108;-75
2022/06/15 02:44:57;;;;;;;3.42;2.05;;;;;;;11.77;65.67;99699.51;1677636;85;21769;-75
2022/06/15 02:47:26;;;;;;;3.77;1.72;;;;;;;11.79;65.83;99698.55;1677907;85;21025;-74
2022/06/15 02:49:53;;;;;;;7.67;2.90;;;;;;;11.81;65.82;99702.45;1677720;85;21592;-74
2022/06/15 02:52:22;;;;;;;5.42;2.22;;;;;;;11.85;65.68;99703.61;1677769;85;21073;-75
2022/06/15 02:54:52;;;;;;;5.53;1.90;;;;;;;11.90;65.92;99704.30;1654183;85;21591;-76
2022/06/15 02:57:21;;;;;;;7.95;2.02;;;;;;;11.94;66.00;99712.13;1677719;85;21081;-76
2022/06/15 02:59:48;;;;;;;4.17;1.95;;;;;;;11.96;66.13;99707.66;1677653;85;21140;-75
2022/06/15 03:02:17;;;;;;;4.70;2.02;;;;;;;11.96;66.26;99711.14;1677529;85;21128;-75
2022/06/15 03:04:45;;;;;;;5.42;2.33;;;;;;;11.95;66.41;99708.56;1677595;85;21097;-75
2022/06/15 03:07:14;;;;;;;5.87;2.00;;;;;;;11.95;66.63;99709.88;1677667;85;21084;-74
2022/06/15 03:09:40;;;;;;;4.17;1.70;;;;;;;11.95;66.80;99714.69;1677868;85;21121;-74
2022/06/15 03:12:10;;;;;;;6.17;1.75;;;;;;;11.96;66.78;99708.97;1677689;85;22071;-74
2022/06/15 03:14:38;;;;;;;8.55;1.87;;;;;;;11.94;66.78;99707.70;1677630;85;21127;-75
2022/06/15 03:17:06;;;;;;;6.78;2.00;;;;;;;11.96;66.86;99712.92;1677471;85;21042;-75
2022/06/15 03:19:34;;;;;;;3.52;1.80;;;;;;;11.96;67.04;99709.82;1677634;85;21089;-74
2022/06/15 03:22:04;;;;;;;3.20;1.75;;;;;;;11.98;67.07;99713.72;1677685;85;21131;-75
2022/06/15 03:24:33;;;;;;;4.90;2.12;;;;;;;11.98;67.17;99711.94;1675608;85;21133;-75
2022/06/15 03:27:01;;;;;;;8.70;2.08;;;;;;;12.03;67.22;99717.05;1665073;86;21054;-75
2022/06/15 03:29:30;;;;;;;3.47;1.90;;;;;;;12.08;67.14;99721.69;1664937;86;21070;-75
2022/06/15 03:31:59;;;;;;;3.52;1.82;;;;;;;12.12;66.99;99719.79;1670303;84;21155;-74
2022/06/15 03:34:26;;;;;;;4.42;1.80;;;;;;;12.15;67.00;99719.21;1663715;86;21103;-75
2022/06/15 03:36:53;;;;;;;3.37;1.50;;;;;;;12.21;67.02;99720.78;1663430;86;21640;-75
2022/06/15 03:39:20;;;;;;;3.25;1.70;;;;;;;12.25;66.87;99724.56;1663427;86;21121;-75
2022/06/15 03:41:48;;;;;;;3.65;1.62;;;;;;;12.32;66.85;99729.59;1669257;85;21066;-75
2022/06/15 03:44:15;;;;;;;6.72;2.17;;;;;;;12.39;66.52;99732.38;1663549;86;21047;-75
2022/06/15 03:46:43;;;;;;;5.03;1.90;;;;;;;12.43;66.38;99731.36;1663563;85;21106;-75
2022/06/15 03:49:15;;;;;;;4.45;1.82;;;;;;;12.49;66.29;99732.45;1663445;85;21147;-74
2022/06/15 03:51:44;;;;;;;5.70;1.85;;;;;;;12.57;66.30;99731.66;1663604;85;21126;-75
2022/06/15 03:54:10;;;;;;;2.72;1.60;;;;;;;12.66;65.96;99732.22;1663516;86;21067;-76
2022/06/15 03:56:46;;;;;;;3.70;2.00;;;;;;;12.70;65.92;99729.41;1663715;86;21000;-75
2022/06/15 03:59:16;;;;;;;2.50;1.57;;;;;;;12.74;65.74;99735.42;1663539;85;21118;-76
2022/06/15 04:01:44;;;;;;;3.27;1.80;;;;;;;12.79;65.54;99742.70;1663276;85;21024;-75
2022/06/15 04:04:12;;;;;;;2.20;1.55;;;;;;;12.82;65.48;99743.90;1663459;86;21039;-75
2022/06/15 04:06:41;;;;;;;3.27;1.72;;;;;;;12.85;65.38;99745.10;1663535;85;21139;-75
2022/06/15 04:09:08;;;;;;;3.67;2.15;;;;;;;12.90;65.46;99749.73;1663535;85;21645;-75
2022/06/15 04:14:29;;;;;;;3.50;2.00;;;;;;;12.95;65.52;99753.05;1663384;86;21030;-75
2022/06/15 04:16:58;;;;;;;2.42;2.05;;;;;;;13.01;65.22;99749.28;1663749;85;21095;-74
2022/06/15 04:19:31;;;;;;;3.33;1.90;;;;;;;13.10;64.99;99748.07;1663962;85;22133;-75
2022/06/15 04:21:58;;;;;;;4.87;1.92;;;;;;;13.19;64.56;99745.88;1663643;86;21062;-75
2022/06/15 04:24:28;;;;;;;8.53;1.80;;;;;;;13.27;64.50;99747.37;1663495;86;21522;-75
2022/06/15 04:26:57;;;;;;;5.72;2.17;;;;;;;13.29;64.42;99751.65;1663478;85;21031;-75
2022/06/15 04:29:25;;;;;;;3.75;1.87;;;;;;;13.29;64.43;99746.36;1663193;85;21129;-76
2022/06/15 04:31:53;;;;;;;5.87;2.00;;;;;;;13.30;64.96;99750.73;1668837;85;21095;-75
2022/06/15 04:34:19;;;;;;;5.92;1.92;;;;;;;13.35;64.92;99743.98;1663547;86;21081;-75
2022/06/15 04:36:47;;;;;;;6.83;1.90;;;;;;;13.40;64.67;99753.89;1663672;85;21171;-75
2022/06/15 04:39:15;;;;;;;4.60;2.20;;;;;;;13.48;64.80;99754.42;1663831;86;21589;-74
2022/06/15 04:41:44;;;;;;;5.62;1.87;;;;;;;13.56;64.36;99751.44;1663314;85;20999;-75
2022/06/15 04:44:11;;;;;;;6.58;3.30;;;;;;;13.66;64.34;99759.36;1663646;86;21091;-74
2022/06/15 04:46:39;;;;;;;4.67;1.90;;;;;;;13.70;63.86;99758.31;1668346;84;21022;-74
2022/06/15 04:49:08;;;;;;;4.58;1.80;;;;;;;13.75;63.91;99758.09;1661150;86;21138;-75
2022/06/15 04:51:41;;;;;;;3.10;1.92;;;;;;;13.80;63.63;99761.86;1659477;86;21082;-74
2022/06/15 04:54:09;;;;;;;6.53;1.65;;;;;;;13.82;63.40;99761.33;1665160;85;21058;-75
2022/06/15 04:56:38;;;;;;;6.70;1.82;;;;;;;13.83;64.02;99766.55;1665280;86;21054;-75
2022/06/15 04:59:07;;;;;;;6.35;2.08;;;;;;;13.84;63.41;99768.75;1665226;85;21201;-74
2022/06/15 05:01:34;;;;;;;4.15;1.95;;;;;;;13.81;63.08;99760.48;1665382;86;21112;-74
2022/06/15 05:04:03;;;;;;;2.17;1.60;;;;;;;13.79;63.32;99765.45;1664698;86;21121;-75
2022/06/15 05:06:34;;;;;;;5.15;1.57;;;;;;;13.84;63.20;99767.44;1665140;86;22229;-75
2022/06/15 05:09:06;;;;;;;6.15;1.60;;;;;;;13.94;63.30;99766.09;1664784;86;21081;-75
2022/06/15 05:11:33;;;;;;;4.35;1.60;;;;;;;14.05;62.85;99767.77;1661026;86;21070;-74
2022/06/15 05:14:00;;;;;;;4.42;1.30;;;;;;;14.12;62.89;99762.63;1665252;86;21350;-75
2022/06/15 05:16:27;;;;;;;3.47;1.70;;;;;;;14.22;62.96;99764.39;1665295;86;21577;-76
2022/06/15 05:18:55;;;;;;;4.17;1.30;;;;;;;14.28;62.97;99764.09;1664946;86;21078;-75
2022/06/15 05:21:23;;;;;;;7.72;1.92;;;;;;;14.35;62.37;99766.47;1665101;86;21093;-75
2022/06/15 05:23:50;;;;;;;5.95;1.82;;;;;;;14.43;62.14;99773.11;1665184;86;21066;-75
2022/06/15 05:26:18;;;;;;;4.95;1.67;;;;;;;14.49;62.42;99772.84;1652236;84;22284;-74
2022/06/15 05:28:45;;;;;;;3.15;1.42;;;;;;;14.56;61.94;99768.56;1644455;87;21098;-75
2022/06/15 05:31:18;;;;;;;5.25;1.85;;;;;;;14.61;60.83;99770.59;1644300;86;21624;-75
2022/06/15 05:33:53;;;;;;;2.70;1.25;;;;;;;14.66;60.58;99765.93;1644194;86;21410;-74
2022/06/15 05:36:20;;;;;;;4.83;1.45;;;;;;;14.70;60.90;99762.67;1646842;86;21174;-75
2022/06/15 05:38:48;;;;;;;2.95;1.10;;;;;;;14.76;60.75;99757.94;1643931;87;21153;-74
2022/06/15 05:41:14;;;;;;;6.80;1.82;;;;;;;14.81;59.97;99755.92;1644079;87;21027;-74
2022/06/15 05:43:49;;;;;;;4.47;1.72;;;;;;;14.87;59.66;99757.41;1643747;87;21154;-74
2022/06/15 05:46:22;;;;;;;2.75;1.50;;;;;;;14.94;60.07;99755.31;1643929;87;21030;-74
2022/06/15 05:48:51;;;;;;;2.27;1.40;;;;;;;15.07;59.63;99755.58;1644072;87;21169;-75
2022/06/15 05:51:19;;;;;;;4.22;1.60;;;;;;;15.20;60.32;99753.56;1644344;87;21858;-75
2022/06/15 05:53:47;;;;;;;6.53;1.60;;;;;;;15.34;58.76;99750.69;1644144;87;22084;-75
2022/06/15 05:56:14;;;;;;;4.15;1.27;;;;;;;15.44;58.47;99747.11;1644338;87;21093;-75
2022/06/15 05:58:42;;;;;;;3.05;1.20;;;;;;;15.53;57.03;99762.09;1644014;87;21058;-75
2022/06/15 06:01:24;;;;;;;6.17;1.45;;;;;;;15.59;55.85;99759.10;1644053;87;21158;-75
2022/06/15 06:03:51;;;;;;;3.15;1.40;;;;;;;15.59;56.25;99764.88;1644079;87;21165;-74
2022/06/15 06:06:18;;;;;;;7.92;1.35;;;;;;;15.63;56.34;99766.91;1644112;87;21111;-75
2022/06/15 06:08:46;;;;;;;4.00;1.30;;;;;;;15.70;56.54;99764.31;1644124;87;21007;-74
2022/06/15 06:11:14;;;;;;;5.35;1.45;;;;;;;15.79;57.14;99755.92;1644256;87;21568;-75
2022/06/15 06:13:40;;;;;;;2.22;1.10;;;;;;;15.90;55.76;99766.84;1644320;87;21142;-74
2022/06/15 06:16:08;;;;;;;6.28;1.65;;;;;;;15.94;54.94;99764.41;1644096;87;22403;-76
2022/06/15 06:18:35;;;;;;;4.10;1.25;;;;;;;15.95;55.09;99764.80;1644270;87;21162;-74
2022/06/15 06:21:03;;;;;;;3.47;1.47;;;;;;;16.00;54.90;99761.03;1643898;87;21101;-74
2022/06/15 06:23:29;;;;;;;4.42;1.20;;;;;;;16.06;54.71;99760.72;1644576;87;21649;-76
2022/06/15 06:25:56;;;;;;;2.92;1.30;;;;;;;16.13;54.72;99766.92;1660038;84;21580;-75
2022/06/15 06:28:40;;;;;;;5.37;1.50;;;;;;;16.20;54.90;99766.61;1696954;84;21124;-74
2022/06/15 06:31:08;;;;;;;4.70;1.50;;;;;;;16.24;54.99;99769.02;1696915;84;21066;-75
2022/06/15 06:33:36;;;;;;;4.42;1.50;;;;;;;16.34;54.07;99766.25;1697239;84;21074;-75
2022/06/15 06:36:08;;;;;;;3.10;1.60;;;;;;;16.45;53.15;99760.81;1696931;84;21096;-75
2022/06/15 06:38:34;;;;;;;3.75;1.30;;;;;;;16.49;52.84;99759.24;1695717;84;21074;-76
2022/06/15 06:41:01;;;;;;;5.62;1.22;;;;;;;16.57;52.61;99769.42;1646112;84;21157;-74
2022/06/15 06:43:28;;;;;;;4.72;1.27;;;;;;;16.65;52.78;99767.69;1696910;84;21133;-75
2022/06/15 06:45:55;;;;;;;5.10;1.80;;;;;;;16.75;52.88;99769.36;1697170;84;21010;-75
2022/06/15 06:48:21;;;;;;;4.50;1.32;;;;;;;16.84;51.84;99768.83;1696809;84;21101;-75
2022/06/15 06:50:48;;;;;;;6.45;1.50;;;;;;;16.90;52.22;99765.86;1698291;84;21074;-76
2022/06/15 06:53:16;;;;;;;4.50;1.40;;;;;;;17.00;51.90;99763.55;1672347;85;21464;-75
2022/06/15 06:55:43;;;;;;;4.97;1.40;;;;;;;17.04;50.54;99771.23;1700180;84;20970;-74
2022/06/15 06:58:09;;;;;;;5.42;1.90;;;;;;;17.01;51.03;99775.42;1672190;85;21580;-75
2022/06/15 07:00:36;;;;;;;3.27;2.20;;;;;;;16.98;50.87;99766.29;1700164;84;21616;-74
2022/06/15 07:03:04;;;;;;;5.42;1.25;;;;;;;17.02;50.05;99771.80;1672352;85;21119;-75
2022/06/15 07:05:34;;;;;;;5.87;1.45;;;;;;;17.05;50.65;99772.95;1700056;84;21153;-74
2022/06/15 07:08:00;;;;;;;2.37;1.40;;;;;;;17.12;51.30;99769.95;1672186;85;21085;-75
2022/06/15 07:10:27;;;;;;;6.60;1.50;;;;;;;17.23;51.15;99766.18;1700142;84;21078;-75
2022/06/15 07:12:56;;;;;;;3.62;1.35;;;;;;;17.35;49.96;99768.14;1672175;85;21030;-75
2022/06/15 07:15:22;;;;;;;2.85;1.52;;;;;;;17.49;49.89;99771.80;1700573;84;21145;-75
2022/06/15 07:17:49;;;;;;;2.58;1.30;;;;;;;17.58;49.63;99772.56;1672022;85;21179;-75
2022/06/15 07:20:18;;;;;;;5.05;1.35;;;;;;;17.61;49.18;99770.57;1700300;84;21628;-74
2022/06/15 07:22:45;;;;;;;2.95;1.00;;;;;;;17.62;47.66;99774.11;1671941;85;21565;-75
2022/06/15 07:25:12;;;;;;;3.90;1.35;;;;;;;17.55;47.56;99776.73;1700081;84;21085;-75
2022/06/15 07:27:39;;;;;;;3.87;1.72;;;;;;;17.44;47.30;99772.06;1654993;85;21074;-74
2022/06/15 07:30:09;;;;;;;4.33;1.37;;;;;;;17.39;47.81;99765.67;1663037;86;21853;-75
2022/06/15 07:32:38;;;;;;;2.47;1.00;;;;;;;17.48;48.82;99769.59;1668030;86;21102;-75
2022/06/15 07:35:06;;;;;;;2.35;1.05;;;;;;;17.59;47.24;99766.30;1668610;86;21109;-74
2022/06/15 07:37:34;;;;;;;3.27;1.00;;;;;;;17.64;47.05;99770.88;1668642;85;21133;-75
2022/06/15 07:40:01;;;;;;;7.37;0.95;;;;;;;17.64;46.88;99773.05;1668379;86;21062;-74
2022/06/15 07:42:28;;;;;;;7.12;1.22;;;;;;;17.62;47.18;99768.79;1668811;86;21232;-75
2022/06/15 07:44:54;;;;;;;4.25;1.15;;;;;;;17.64;48.56;99768.22;1668320;86;21101;-76
2022/06/15 07:50:07;;;;;;;3.60;0.98;;;;;;;18.07;47.05;99760.77;1668697;86;21383;-75
2022/06/15 07:52:38;;;;;;;5.70;1.00;;;;;;;18.30;46.03;99766.02;1668661;86;21105;-76
2022/06/15 07:55:07;;;;;;;5.17;1.05;;;;;;;18.47;44.67;99765.79;1668562;86;22063;-75
2022/06/15 07:57:34;;;;;;;4.20;0.95;;;;;;;18.55;44.63;99759.50;1668622;85;21105;-76
2022/06/15 08:00:01;;;;;;;3.47;0.70;;;;;;;18.68;44.77;99762.73;1668655;86;21015;-75
2022/06/15 08:02:28;;;;;;;3.72;1.00;;;;;;;18.80;43.74;99763.75;1668392;86;21078;-74
2022/06/15 08:04:56;;;;;;;2.98;0.90;;;;;;;18.78;45.34;99765.17;1668877;86;21003;-74
2022/06/15 08:07:23;;;;;;;0.72;0.65;;;;;;;18.79;44.36;99765.53;1668587;86;22169;-76
2022/06/15 08:09:49;;;;;;;4.42;0.90;;;;;;;18.79;42.99;99761.53;1668450;86;21141;-76
2022/06/15 08:12:23;;;;;;;1.90;0.90;;;;;;;18.79;44.03;99758.02;1668523;86;21633;-74
2022/06/15 08:14:51;;;;;;;2.75;0.85;;;;;;;18.88;43.85;99760.98;1668333;86;21090;-76
2022/06/15 08:17:27;;;;;;;2.35;0.80;;;;;;;18.96;43.88;99751.63;1668665;85;21101;-74
2022/06/15 08:20:09;;;;;;;2.75;0.95;;;;;;;18.97;41.38;99760.02;1668641;86;21186;-75
2022/06/15 08:22:39;;;;;;;3.83;0.80;;;;;;;18.87;40.99;99756.59;1668605;86;21625;-76
2022/06/15 08:25:09;;;;;;;0.82;0.70;;;;;;;18.84;42.29;99754.12;1668517;86;21137;-76
2022/06/15 08:27:36;;;;;;;1.55;0.78;;;;;;;18.96;42.01;99755.13;1672364;85;21117;-74
2022/06/15 08:30:08;;;;;;;3.25;0.70;;;;;;;19.09;41.03;99749.86;1673583;85;21090;-75
2022/06/15 08:32:34;;;;;;;3.17;1.05;;;;;;;19.20;42.38;99738.46;1673929;85;21368;-74
2022/06/15 08:35:01;;;;;;;4.35;0.70;;;;;;;19.43;42.86;99736.92;1673370;85;21098;-76
2022/06/15 08:37:28;;;;;;;1.62;0.78;;;;;;;19.64;42.43;99740.80;1673710;85;21063;-75
2022/06/15 08:39:55;;;;;;;3.33;0.90;;;;;;;19.72;42.50;99737.61;1673605;85;22141;-76
2022/06/15 08:42:45;;;;;;;0.65;0.50;;;;;;;19.75;40.82;99749.42;1673928;85;21140;-75
2022/06/15 08:45:36;;;;;;;2.58;0.78;;;;;;;19.64;40.06;99746.13;1671378;85;21162;-75
2022/06/15 08:48:41;;;;;;;5.72;0.70;;;;;;;19.67;40.98;99741.92;1673978;85;21575;-75
2022/06/15 08:51:19;;;;;;;3.87;0.90;;;;;;;19.85;41.35;99738.50;1672441;85;22127;-75
2022/06/15 08:54:06;;;;;;;0.98;0.60;;;;;;;20.10;40.49;99739.92;1673735;85;21107;-75
2022/06/15 08:56:59;;;;;;;8.10;0.72;;;;;;;20.11;39.65;99742.98;1673722;85;21644;-75
2022/06/15 08:59:52;;;;;;;2.60;0.75;;;;;;;20.11;39.58;99748.31;1673575;85;21736;-75
2022/06/15 09:02:33;;;;;;;1.67;0.88;;;;;;;20.19;39.96;99737.91;1673726;85;21569;-76
2022/06/15 09:05:14;;;;;;;4.08;0.88;;;;;;;20.16;39.70;99740.83;1673583;85;21055;-75
2022/06/15 09:07:49;;;;;;;4.33;0.75;;;;;;;20.07;40.40;99743.64;1673930;85;21033;-75
2022/06/15 09:10:50;;;;;;;2.40;0.50;;;;;;;20.11;39.54;99735.81;1670881;85;21155;-76
2022/06/15 09:13:57;;;;;;;3.30;0.70;;;;;;;20.27;40.38;99730.21;1673278;84;21028;-75
2022/06/15 09:16:51;;;;;;;1.02;0.70;;;;;;;20.57;40.07;99733.83;1673510;85;21597;-76
2022/06/15 09:19:36;;;;;;;3.40;0.93;;;;;;;20.73;38.23;99742.12;1673536;85;34650;-75
2022/06/15 09:22:07;;;;;;;3.12;0.90;;;;;;;20.63;39.68;99731.23;1664546;85;21123;-75
2022/06/15 09:24:47;;;;;;;2.45;0.70;;;;;;;20.67;39.62;99739.39;1673045;85;21088;-75
2022/06/15 09:27:15;;;;;;;3.70;0.88;;;;;;;20.52;37.58;99751.17;1673703;85;21155;-76
2022/06/15 09:29:46;;;;;;;1.87;0.80;;;;;;;20.06;38.92;99745.12;1673475;85;21070;-75
2022/06/15 09:32:18;;;;;;;1.55;0.70;;;;;;;19.84;40.08;99740.78;1673752;85;21090;-74
2022/06/15 09:35:19;;;;;;;2.35;0.80;;;;;;;19.96;38.83;99748.42;1673700;85;21649;-74
2022/06/15 09:37:50;;;;;;;10.25;0.60;;;;;;;20.07;37.95;99744.14;1673532;85;21083;-75
2022/06/15 09:40:18;;;;;;;4.22;0.80;;;;;;;20.09;38.49;99739.53;1673764;85;21127;-75
2022/06/15 09:43:11;;;;;;;12.78;0.90;;;;;;;20.20;38.35;99736.97;1673736;85;21003;-75
2022/06/15 09:46:01;;;;;;;2.10;0.88;;;;;;;20.28;37.60;99729.27;1673745;85;21090;-75
2022/06/15 09:48:36;;;;;;;2.05;0.60;;;;;;;20.35;38.34;99735.02;1673792;85;21496;-75
2022/06/15 09:51:57;;;;;;;5.10;0.70;;;;;;;20.53;37.51;99732.35;1673291;85;21070;-75
2022/06/15 09:54:49;;;;;;;0.57;0.50;;;;;;;20.66;37.84;99728.34;1673837;85;21849;-75
2022/06/15 09:57:15;;;;;;;2.47;0.72;;;;;;;20.78;37.75;99723.42;1673660;85;21012;-75
2022/06/15 09:59:42;;;;;;;1.40;0.53;;;;;;;21.04;37.48;99719.28;1673678;85;21115;-75
2022/06/15 10:02:33;;;;;;;4.55;0.70;;;;;;;21.24;34.99;99722.28;1673797;84;21531;-75
2022/06/15 10:05:02;;;;;;;2.05;0.60;;;;;;;21.25;34.63;99726.65;1673751;85;21103;-75
2022/06/15 10:07:42;;;;;;;6.55;1.25;;;;;;;21.08;35.08;99726.13;1673746;85;21210;-75
2022/06/15 10:10:24;;;;;;;3.52;0.60;;;;;;;20.92;35.49;99725.56;1673544;85;21582;-76
2022/06/15 10:13:07;;;;;;;1.75;0.70;;;;;;;20.91;35.34;99721.16;1674187;85;21563;-76
2022/06/15 10:15:45;;;;;;;0.60;0.60;;;;;;;20.94;34.85;99724.95;1667035;85;21135;-75
2022/06/15 10:18:37;;;;;;;5.78;0.90;;;;;;;20.77;35.49;99728.39;1674315;85;21684;-75
2022/06/15 10:21:17;;;;;;;9.48;0.80;;;;;;;20.56;35.39;99719.23;1673660;85;21118;-76
2022/06/15 10:24:11;;;;;;;2.92;0.50;;;;;;;20.40;35.14;99731.04;1673972;85;21074;-74
2022/06/15 10:26:52;;;;;;;2.72;0.82;;;;;;;20.43;35.99;99725.97;1673914;85;21716;-76
2022/06/15 10:29:30;;;;;;;1.30;0.50;;;;;;;20.59;35.58;99719.02;1678545;85;21140;-75
2022/06/15 10:32:12;;;;;;;4.45;0.70;;;;;;;20.78;35.67;99714.06;1678467;85;21150;-75
2022/06/15 10:34:59;;;;;;;1.37;0.65;;;;;;;20.97;35.48;99715.37;1671610;85;21898;-75
2022/06/15 10:37:36;;;;;;;2.40;0.70;;;;;;;21.03;35.85;99722.94;1650028;86;21078;-75
2022/06/15 10:40:33;;;;;;;2.75;0.80;;;;;;;20.99;35.56;99723.28;1651352;86;21076;-75
2022/06/15 10:43:03;;;;;;;2.40;0.80;;;;;;;20.97;35.44;99714.88;1651113;86;21014;-75
2022/06/15 10:45:56;;;;;;;1.32;0.60;;;;;;;21.10;36.73;99714.81;1651232;86;21043;-76
2022/06/15 10:48:32;;;;;;;2.15;0.65;;;;;;;21.25;36.08;99711.47;1647447;86;21204;-76
2022/06/15 10:51:06;;;;;;;6.72;0.75;;;;;;;21.40;36.08;99713.93;1651218;86;21033;-75
2022/06/15 10:53:50;;;;;;;1.82;0.60;;;;;;;21.36;33.95;99707.12;1651057;86;21679;-75
2022/06/15 11:02:31;;;;;;;1.37;0.50;;;;;;;21.59;34.55;99711.58;1604186;86;21163;-76
2022/06/15 11:05:11;;;;;;;2.25;0.68;;;;;;;21.76;34.10;99704.91;1650945;86;21101;-75
2022/06/15 11:07:51;;;;;;;0.90;0.50;;;;;;;21.95;34.14;99704.30;1651241;86;21165;-75
2022/06/15 11:10:27;;;;;;;2.17;1.22;;;;;;;22.10;34.10;99701.39;1650909;86;21145;-76
2022/06/15 11:13:05;;;;;;;2.40;0.68;;;;;;;22.13;33.54;99689.94;1651563;86;21061;-75
2022/06/15 11:18:45;;;;;;;1.77;0.60;;;;;;;22.21;33.19;99694.20;1650964;86;21086;-75
2022/06/15 11:21:23;;;;;;;2.85;0.47;;;;;;;22.16;32.90;99688.36;1650937;86;21127;-76
2022/06/15 11:24:25;;;;;;;6.08;1.12;;;;;;;21.99;32.78;99699.09;1651324;86;21108;-75
2022/06/15 11:27:09;;;;;;;4.30;0.72;;;;;;;21.79;33.63;99692.62;1650275;85;21112;-76
2022/06/15 11:29:52;;;;;;;2.75;0.60;;;;;;;21.66;34.42;99690.05;1646638;85;22367;-75
2022/06/15 11:32:58;;;;;;;3.72;0.70;;;;;;;21.73;35.80;99689.08;1696779;84;20915;-75
2022/06/15 11:35:56;;;;;;;0.55;0.50;;;;;;;21.92;34.92;99691.64;1701405;84;21130;-76
2022/06/15 11:38:51;;;;;;;3.65;0.88;;;;;;;22.09;34.17;99684.48;1702181;84;21050;-75
2022/06/15 11:41:25;;;;;;;2.25;0.60;;;;;;;22.13;34.82;99684.58;1686292;84;21132;-74
2022/06/15 11:43:54;;;;;;;1.47;0.60;;;;;;;22.11;33.89;99687.00;1702248;84;21959;-75
2022/06/15 11:46:51;;;;;;;5.85;1.00;;;;;;;21.97;33.11;99674.72;1727442;83;21030;-75
2022/06/15 11:49:47;;;;;;;3.70;0.70;;;;;;;21.86;33.75;99680.44;1702188;82;21575;-75
2022/06/15 11:52:49;;;;;;;3.42;0.53;;;;;;;21.87;33.67;99678.14;1697518;84;21091;-76
2022/06/15 11:55:33;;;;;;;6.42;0.68;;;;;;;21.96;34.65;99681.07;1730447;82;21085;-75
2022/06/15 11:58:46;;;;;;;1.98;0.60;;;;;;;22.16;35.68;99680.32;1697629;84;21187;-76
2022/06/15 12:01:44;;;;;;;7.65;0.72;;;;;;;22.29;32.95;99686.89;1730339;82;21147;-76
2022/06/15 12:04:47;;;;;;;4.10;0.80;;;;;;;22.18;32.56;99683.72;1692994;84;21500;-76
2022/06/15 12:07:47;;;;;;;2.62;0.50;;;;;;;22.06;32.89;99686.05;1697648;84;21066;-76
2022/06/15 12:10:23;;;;;;;2.10;0.68;;;;;;;21.98;31.82;99692.51;1698646;83;22161;-75
2022/06/15 12:13:08;;;;;;;4.85;1.10;;;;;;;21.78;32.64;99684.21;1699067;83;22265;-75
2022/06/15 12:15:46;;;;;;;1.50;0.60;;;;;;;21.60;33.47;99693.69;1698835;84;21058;-75
2022/06/15 12:19:04;;;;;;;2.62;0.60;;;;;;;21.36;33.24;99687.89;1698498;84;21003;-76
2022/06/15 12:21:47;;;;;;;2.75;0.90;;;;;;;21.27;34.60;99689.95;1698660;84;21125;-75
2022/06/15 12:24:21;;;;;;;5.22;0.88;;;;;;;21.15;34.42;99687.23;1698771;84;21006;-75